Alcester, South Dakota
Current Conditions -  °F | °C
As of 3:35 PM on Wednesday 26 Nov 2014 (Local Time) from KLRJ Reporting Station
Overcast Overcast  
Wind Chill: 11°   Ceiling: 1800
Heat Index: 23°   Visibility: 10mi
Dew Point: 18°   Wind: 14mph
Humidity: 80%   Direction: 350°N
Pressure: 30.3"   Gusts: 22mph
Location:  43.02°N, 96.63°W
Report Text: KLRJ 262135Z AUTO 35012G19KT 10SM OVC018 M05/M08 A3030 RMK AO2
Loading
Personal Weather Stations






























Interactive Weather Map New forecast layout! Learn more

10-Day Weather Forecast

Advertisements
Track Severe Weather on mobile